sensor_id;sensor_type;location;lat;lon;timestamp;pressure;altitude;pressure_sealevel;temperature;humidity
22481;BME280;11407;56.964;-2.212;2022-12-07T00:01:35;102580.88;;;12.37;50.08
22481;BME280;11407;56.964;-2.212;2022-12-07T00:04:02;102585.16;;;12.23;50.78
22481;BME280;11407;56.964;-2.212;2022-12-07T00:06:33;102589.50;;;12.41;50.84
22481;BME280;11407;56.964;-2.212;2022-12-07T00:08:58;102577.44;;;12.35;50.50
22481;BME280;11407;56.964;-2.212;2022-12-07T00:11:24;102576.13;;;12.44;50.27
22481;BME280;11407;56.964;-2.212;2022-12-07T00:13:54;102575.44;;;12.56;50.08
22481;BME280;11407;56.964;-2.212;2022-12-07T00:16:22;102575.44;;;12.56;49.86
22481;BME280;11407;56.964;-2.212;2022-12-07T00:18:47;102580.00;;;12.37;50.23
22481;BME280;11407;56.964;-2.212;2022-12-07T00:21:19;102570.38;;;12.51;50.80
22481;BME280;11407;56.964;-2.212;2022-12-07T00:23:47;102575.75;;;12.50;50.32
22481;BME280;11407;56.964;-2.212;2022-12-07T00:26:16;102568.75;;;12.49;50.36
22481;BME280;11407;56.964;-2.212;2022-12-07T00:28:45;102570.38;;;12.51;50.06
22481;BME280;11407;56.964;-2.212;2022-12-07T00:31:13;102565.53;;;12.44;50.53
22481;BME280;11407;56.964;-2.212;2022-12-07T00:33:39;102563.47;;;12.49;50.88
22481;BME280;11407;56.964;-2.212;2022-12-07T00:36:08;102563.47;;;12.49;50.40
22481;BME280;11407;56.964;-2.212;2022-12-07T00:38:35;102562.53;;;12.50;51.00
22481;BME280;11407;56.964;-2.212;2022-12-07T00:41:02;102564.00;;;12.55;50.78
22481;BME280;11407;56.964;-2.212;2022-12-07T00:43:28;102571.75;;;12.43;50.22
22481;BME280;11407;56.964;-2.212;2022-12-07T00:45:54;102557.66;;;12.42;50.13
22481;BME280;11407;56.964;-2.212;2022-12-07T00:48:20;102545.38;;;12.41;50.36
22481;BME280;11407;56.964;-2.212;2022-12-07T00:50:47;102540.44;;;12.51;50.36
22481;BME280;11407;56.964;-2.212;2022-12-07T00:53:12;102530.28;;;12.43;50.44
22481;BME280;11407;56.964;-2.212;2022-12-07T00:55:38;102530.28;;;12.43;49.68
22481;BME280;11407;56.964;-2.212;2022-12-07T00:58:03;102527.47;;;12.31;50.38
22481;BME280;11407;56.964;-2.212;2022-12-07T01:00:29;102534.47;;;12.32;50.17
22481;BME280;11407;56.964;-2.212;2022-12-07T01:02:55;102540.22;;;12.23;50.14
22481;BME280;11407;56.964;-2.212;2022-12-07T01:05:20;102534.66;;;12.12;50.30
22481;BME280;11407;56.964;-2.212;2022-12-07T01:07:46;102540.16;;;12.09;49.88
22481;BME280;11407;56.964;-2.212;2022-12-07T01:10:13;102540.34;;;12.04;49.75
22481;BME280;11407;56.964;-2.212;2022-12-07T01:12:39;102534.47;;;11.99;50.27
22481;BME280;11407;56.964;-2.212;2022-12-07T01:15:05;102530.03;;;12.00;49.78
22481;BME280;11407;56.964;-2.212;2022-12-07T01:17:31;102526.84;;;11.93;49.84
22481;BME280;11407;56.964;-2.212;2022-12-07T01:19:56;102531.91;;;11.98;50.51
22481;BME280;11407;56.964;-2.212;2022-12-07T01:22:22;102528.41;;;11.97;50.41
22481;BME280;11407;56.964;-2.212;2022-12-07T01:24:47;102524.41;;;11.90;50.23
22481;BME280;11407;56.964;-2.212;2022-12-07T01:27:13;102521.91;;;11.87;50.66
22481;BME280;11407;56.964;-2.212;2022-12-07T01:29:39;102514.44;;;11.95;50.48
22481;BME280;11407;56.964;-2.212;2022-12-07T01:32:05;102522.97;;;12.00;50.40
22481;BME280;11407;56.964;-2.212;2022-12-07T01:34:30;102516.50;;;12.06;50.12
22481;BME280;11407;56.964;-2.212;2022-12-07T01:36:56;102514.03;;;12.03;50.07
22481;BME280;11407;56.964;-2.212;2022-12-07T01:39:22;102512.56;;;11.97;50.07
22481;BME280;11407;56.964;-2.212;2022-12-07T01:41:47;102507.09;;;11.85;50.68
22481;BME280;11407;56.964;-2.212;2022-12-07T01:46:38;102512.19;;;11.88;50.36
22481;BME280;11407;56.964;-2.212;2022-12-07T01:49:06;102518.78;;;11.96;50.24
22481;BME280;11407;56.964;-2.212;2022-12-07T01:51:34;102514.44;;;11.95;50.69
22481;BME280;11407;56.964;-2.212;2022-12-07T01:54:01;102513.66;;;11.93;50.64
22481;BME280;11407;56.964;-2.212;2022-12-07T01:56:27;102509.66;;;12.02;50.76
22481;BME280;11407;56.964;-2.212;2022-12-07T01:58:55;102513.09;;;12.04;50.88
22481;BME280;11407;56.964;-2.212;2022-12-07T02:01:22;102521.91;;;11.87;51.39
22481;BME280;11407;56.964;-2.212;2022-12-07T02:03:48;102515.03;;;11.68;51.13
22481;BME280;11407;56.964;-2.212;2022-12-07T02:06:20;102500.25;;;12.13;51.56
22481;BME280;11407;56.964;-2.212;2022-12-07T02:08:46;102494.50;;;12.05;51.08
22481;BME280;11407;56.964;-2.212;2022-12-07T02:11:12;102488.03;;;12.11;51.34
22481;BME280;11407;56.964;-2.212;2022-12-07T02:13:40;102487.72;;;12.32;50.99
22481;BME280;11407;56.964;-2.212;2022-12-07T02:17:12;102484.50;;;12.43;50.91
22481;BME280;11407;56.964;-2.212;2022-12-07T02:28:31;102469.31;;;12.46;50.64
22481;BME280;11407;56.964;-2.212;2022-12-07T02:31:04;102468.13;;;12.36;50.73
22481;BME280;11407;56.964;-2.212;2022-12-07T02:33:36;102457.44;;;12.38;50.77
22481;BME280;11407;56.964;-2.212;2022-12-07T02:36:25;102457.13;;;12.44;50.69
22481;BME280;11407;56.964;-2.212;2022-12-07T02:39:08;102456.16;;;12.45;50.64
22481;BME280;11407;56.964;-2.212;2022-12-07T02:41:40;102453.09;;;12.52;50.99
22481;BME280;11407;56.964;-2.212;2022-12-07T02:44:11;102455.66;;;12.54;50.96
22481;BME280;11407;56.964;-2.212;2022-12-07T02:46:43;102456.34;;;12.57;50.77
22481;BME280;11407;56.964;-2.212;2022-12-07T02:49:10;102455.16;;;12.47;50.75
22481;BME280;11407;56.964;-2.212;2022-12-07T02:51:39;102452.91;;;12.55;51.05
22481;BME280;11407;56.964;-2.212;2022-12-07T02:54:14;102447.47;;;12.58;50.73
22481;BME280;11407;56.964;-2.212;2022-12-07T03:13:15;102443.78;;;12.60;50.91
22481;BME280;11407;56.964;-2.212;2022-12-07T03:15:51;102436.97;;;12.72;51.04
22481;BME280;11407;56.964;-2.212;2022-12-07T03:18:24;102445.72;;;12.72;50.68
22481;BME280;11407;56.964;-2.212;2022-12-07T03:20:53;102442.16;;;12.73;51.06
22481;BME280;11407;56.964;-2.212;2022-12-07T03:23:21;102439.34;;;12.76;50.28
22481;BME280;11407;56.964;-2.212;2022-12-07T03:25:54;102432.91;;;12.80;50.08
22481;BME280;11407;56.964;-2.212;2022-12-07T03:28:22;102432.06;;;12.80;50.16
22481;BME280;11407;56.964;-2.212;2022-12-07T03:30:56;102429.16;;;12.84;49.76
22481;BME280;11407;56.964;-2.212;2022-12-07T03:33:57;102427.13;;;12.89;49.94
22481;BME280;11407;56.964;-2.212;2022-12-07T03:36:30;102437.84;;;12.86;50.41
22481;BME280;11407;56.964;-2.212;2022-12-07T03:41:37;102433.09;;;12.77;50.57
22481;BME280;11407;56.964;-2.212;2022-12-07T03:44:04;102428.66;;;12.93;49.97
22481;BME280;11407;56.964;-2.212;2022-12-07T03:49:18;102433.69;;;12.82;50.39
22481;BME280;11407;56.964;-2.212;2022-12-07T03:52:12;102437.19;;;12.98;50.17
22481;BME280;11407;56.964;-2.212;2022-12-07T03:54:52;102431.22;;;12.95;49.93
22481;BME280;11407;56.964;-2.212;2022-12-07T03:57:22;102428.97;;;12.87;50.28
22481;BME280;11407;56.964;-2.212;2022-12-07T03:59:49;102435.25;;;12.71;50.40
22481;BME280;11407;56.964;-2.212;2022-12-07T04:02:15;102424.50;;;12.58;50.03
22481;BME280;11407;56.964;-2.212;2022-12-07T04:04:42;102435.59;;;12.65;49.95
22481;BME280;11407;56.964;-2.212;2022-12-07T04:07:08;102424.16;;;12.64;50.07
22481;BME280;11407;56.964;-2.212;2022-12-07T04:09:34;102410.28;;;12.61;50.22
22481;BME280;11407;56.964;-2.212;2022-12-07T04:12:00;102406.34;;;12.53;49.59
22481;BME280;11407;56.964;-2.212;2022-12-07T04:14:25;102402.94;;;12.51;49.63
22481;BME280;11407;56.964;-2.212;2022-12-07T04:16:56;102406.34;;;12.53;48.92
22481;BME280;11407;56.964;-2.212;2022-12-07T04:19:24;102399.03;;;12.42;49.37
22481;BME280;11407;56.964;-2.212;2022-12-07T04:21:50;102400.84;;;12.26;49.50
22481;BME280;11407;56.964;-2.212;2022-12-07T04:24:15;102400.25;;;12.21;49.34
22481;BME280;11407;56.964;-2.212;2022-12-07T04:26:42;102403.50;;;12.26;49.35
22481;BME280;11407;56.964;-2.212;2022-12-07T04:29:09;102409.19;;;12.19;49.34
22481;BME280;11407;56.964;-2.212;2022-12-07T04:31:34;102396.97;;;12.16;49.02
22481;BME280;11407;56.964;-2.212;2022-12-07T04:34:00;102402.44;;;11.98;49.04
22481;BME280;11407;56.964;-2.212;2022-12-07T04:36:25;102400.41;;;11.87;49.46
22481;BME280;11407;56.964;-2.212;2022-12-07T04:38:53;102405.34;;;11.93;49.68
22481;BME280;11407;56.964;-2.212;2022-12-07T04:41:20;102399.38;;;11.90;49.60
22481;BME280;11407;56.964;-2.212;2022-12-07T04:43:53;102395.53;;;11.95;49.38
22481;BME280;11407;56.964;-2.212;2022-12-07T04:46:19;102396.72;;;11.90;49.35
22481;BME280;11407;56.964;-2.212;2022-12-07T04:48:44;102394.19;;;11.88;49.65
22481;BME280;11407;56.964;-2.212;2022-12-07T04:51:09;102390.41;;;11.92;49.74
22481;BME280;11407;56.964;-2.212;2022-12-07T04:53:35;102396.19;;;11.83;49.91
22481;BME280;11407;56.964;-2.212;2022-12-07T04:56:00;102387.88;;;11.91;49.62
22481;BME280;11407;56.964;-2.212;2022-12-07T04:58:26;102383.00;;;11.83;50.16
22481;BME280;11407;56.964;-2.212;2022-12-07T05:00:54;102379.53;;;11.98;50.20
22481;BME280;11407;56.964;-2.212;2022-12-07T05:03:19;102380.19;;;12.02;50.16
22481;BME280;11407;56.964;-2.212;2022-12-07T05:05:44;102371.34;;;12.03;50.12
22481;BME280;11407;56.964;-2.212;2022-12-07T05:08:10;102372.69;;;11.94;49.99
22481;BME280;11407;56.964;-2.212;2022-12-07T05:10:35;102362.38;;;11.90;50.33
22481;BME280;11407;56.964;-2.212;2022-12-07T05:13:01;102370.72;;;11.98;50.26
22481;BME280;11407;56.964;-2.212;2022-12-07T05:15:26;102368.59;;;11.89;49.36
22481;BME280;11407;56.964;-2.212;2022-12-07T05:17:51;102358.66;;;11.94;50.30
22481;BME280;11407;56.964;-2.212;2022-12-07T05:20:17;102359.59;;;11.93;50.37
22481;BME280;11407;56.964;-2.212;2022-12-07T05:22:43;102352.69;;;12.06;49.88
22481;BME280;11407;56.964;-2.212;2022-12-07T05:25:08;102346.88;;;11.99;50.39
22481;BME280;11407;56.964;-2.212;2022-12-07T05:27:34;102348.31;;;12.05;50.40
22481;BME280;11407;56.964;-2.212;2022-12-07T05:29:59;102342.88;;;12.08;50.35
22481;BME280;11407;56.964;-2.212;2022-12-07T05:32:25;102341.50;;;12.01;50.41
22481;BME280;11407;56.964;-2.212;2022-12-07T05:34:50;102339.53;;;12.04;50.00
22481;BME280;11407;56.964;-2.212;2022-12-07T05:37:15;102337.50;;;12.09;50.51
22481;BME280;11407;56.964;-2.212;2022-12-07T05:39:41;102335.69;;;12.10;49.62
22481;BME280;11407;56.964;-2.212;2022-12-07T05:42:10;102342.78;;;12.09;50.07
22481;BME280;11407;56.964;-2.212;2022-12-07T05:44:39;102333.72;;;11.98;50.53
22481;BME280;11407;56.964;-2.212;2022-12-07T05:47:04;102341.34;;;11.88;50.34
22481;BME280;11407;56.964;-2.212;2022-12-07T05:49:30;102338.69;;;12.04;50.16
22481;BME280;11407;56.964;-2.212;2022-12-07T05:51:55;102339.72;;;12.01;49.86
22481;BME280;11407;56.964;-2.212;2022-12-07T05:54:21;102340.56;;;12.02;50.10
22481;BME280;11407;56.964;-2.212;2022-12-07T05:56:46;102334.09;;;11.92;50.20
22481;BME280;11407;56.964;-2.212;2022-12-07T05:59:12;102334.44;;;11.86;50.10
22481;BME280;11407;56.964;-2.212;2022-12-07T06:04:22;102331.88;;;12.00;50.57
22481;BME280;11407;56.964;-2.212;2022-12-07T06:06:48;102325.22;;;11.93;50.35
22481;BME280;11407;56.964;-2.212;2022-12-07T06:09:14;102320.81;;;12.09;50.37
22481;BME280;11407;56.964;-2.212;2022-12-07T06:11:40;102319.53;;;12.00;50.53
22481;BME280;11407;56.964;-2.212;2022-12-07T06:14:24;102312.03;;;11.93;50.09
22481;BME280;11407;56.964;-2.212;2022-12-07T06:16:49;102311.00;;;11.95;50.78
22481;BME280;11407;56.964;-2.212;2022-12-07T06:19:15;102298.72;;;11.94;50.86
22481;BME280;11407;56.964;-2.212;2022-12-07T06:21:40;102299.38;;;11.98;50.21
22481;BME280;11407;56.964;-2.212;2022-12-07T06:24:06;102288.00;;;11.82;51.04
22481;BME280;11407;56.964;-2.212;2022-12-07T06:26:31;102293.34;;;11.80;50.74
22481;BME280;11407;56.964;-2.212;2022-12-07T06:28:57;102284.44;;;11.83;50.26
22481;BME280;11407;56.964;-2.212;2022-12-07T06:31:22;102272.22;;;11.80;50.46
22481;BME280;11407;56.964;-2.212;2022-12-07T06:33:48;102270.72;;;11.76;50.59
22481;BME280;11407;56.964;-2.212;2022-12-07T06:36:13;102274.63;;;11.85;50.54
22481;BME280;11407;56.964;-2.212;2022-12-07T06:38:39;102265.00;;;11.84;50.55
22481;BME280;11407;56.964;-2.212;2022-12-07T06:41:04;102267.28;;;11.90;50.42
22481;BME280;11407;56.964;-2.212;2022-12-07T06:43:30;102269.16;;;11.88;50.63
22481;BME280;11407;56.964;-2.212;2022-12-07T06:45:55;102277.00;;;11.89;50.11
22481;BME280;11407;56.964;-2.212;2022-12-07T06:48:20;102274.16;;;11.92;50.94
22481;BME280;11407;56.964;-2.212;2022-12-07T06:50:47;102281.59;;;12.01;50.96
22481;BME280;11407;56.964;-2.212;2022-12-07T06:53:12;102268.31;;;11.87;50.68
22481;BME280;11407;56.964;-2.212;2022-12-07T06:55:38;102266.75;;;11.99;50.58
22481;BME280;11407;56.964;-2.212;2022-12-07T06:58:03;102268.19;;;12.04;51.08
22481;BME280;11407;56.964;-2.212;2022-12-07T07:00:29;102263.06;;;12.17;51.53
22481;BME280;11407;56.964;-2.212;2022-12-07T07:02:55;102265.66;;;12.03;51.22
22481;BME280;11407;56.964;-2.212;2022-12-07T07:05:20;102263.84;;;12.19;51.13
22481;BME280;11407;56.964;-2.212;2022-12-07T07:07:50;102256.56;;;12.22;50.36
22481;BME280;11407;56.964;-2.212;2022-12-07T07:10:15;102266.50;;;12.33;50.41
22481;BME280;11407;56.964;-2.212;2022-12-07T07:12:41;102257.13;;;12.27;50.43
22481;BME280;11407;56.964;-2.212;2022-12-07T07:15:07;102262.03;;;12.19;50.29
22481;BME280;11407;56.964;-2.212;2022-12-07T07:17:32;102264.16;;;12.13;50.91
22481;BME280;11407;56.964;-2.212;2022-12-07T07:19:58;102271.56;;;12.22;50.69
22481;BME280;11407;56.964;-2.212;2022-12-07T07:22:23;102267.66;;;12.29;50.64
22481;BME280;11407;56.964;-2.212;2022-12-07T07:24:49;102262.09;;;12.33;50.42
22481;BME280;11407;56.964;-2.212;2022-12-07T07:27:14;102254.88;;;12.21;50.20
22481;BME280;11407;56.964;-2.212;2022-12-07T07:29:39;102255.13;;;12.17;49.54
22481;BME280;11407;56.964;-2.212;2022-12-07T07:32:05;102254.59;;;12.26;50.76
22481;BME280;11407;56.964;-2.212;2022-12-07T07:34:30;102257.72;;;12.32;50.07
22481;BME280;11407;56.964;-2.212;2022-12-07T07:36:55;102266.16;;;12.39;49.96
22481;BME280;11407;56.964;-2.212;2022-12-07T07:39:21;102262.28;;;12.15;50.45
22481;BME280;11407;56.964;-2.212;2022-12-07T07:41:46;102267.25;;;12.21;50.48
22481;BME280;11407;56.964;-2.212;2022-12-07T07:44:12;102265.34;;;12.23;51.22
22481;BME280;11407;56.964;-2.212;2022-12-07T07:46:37;102267.94;;;12.09;50.66
22481;BME280;11407;56.964;-2.212;2022-12-07T07:49:03;102274.56;;;12.16;50.86
22481;BME280;11407;56.964;-2.212;2022-12-07T07:51:28;102266.38;;;12.20;51.32
22481;BME280;11407;56.964;-2.212;2022-12-07T07:53:54;102262.16;;;12.02;51.41
22481;BME280;11407;56.964;-2.212;2022-12-07T07:56:19;102271.34;;;12.11;50.92
22481;BME280;11407;56.964;-2.212;2022-12-07T07:58:45;102265.78;;;12.15;50.48
22481;BME280;11407;56.964;-2.212;2022-12-07T08:01:10;102269.25;;;12.31;50.85
22481;BME280;11407;56.964;-2.212;2022-12-07T08:03:36;102260.47;;;12.31;50.63
22481;BME280;11407;56.964;-2.212;2022-12-07T08:06:02;102250.63;;;12.33;50.76
22481;BME280;11407;56.964;-2.212;2022-12-07T08:08:28;102240.94;;;12.33;50.53
22481;BME280;11407;56.964;-2.212;2022-12-07T08:10:53;102230.84;;;12.40;50.34
22481;BME280;11407;56.964;-2.212;2022-12-07T08:13:19;102242.25;;;12.40;50.22
22481;BME280;11407;56.964;-2.212;2022-12-07T08:15:46;102233.03;;;12.47;50.42
22481;BME280;11407;56.964;-2.212;2022-12-07T08:18:13;102240.06;;;12.33;50.89
22481;BME280;11407;56.964;-2.212;2022-12-07T08:20:40;102240.00;;;12.34;50.41
22481;BME280;11407;56.964;-2.212;2022-12-07T08:23:06;102237.78;;;12.27;50.61
22481;BME280;11407;56.964;-2.212;2022-12-07T08:25:32;102241.56;;;12.23;50.81
22481;BME280;11407;56.964;-2.212;2022-12-07T08:27:58;102234.84;;;12.17;51.03
22481;BME280;11407;56.964;-2.212;2022-12-07T08:30:24;102219.63;;;12.36;50.43
22481;BME280;11407;56.964;-2.212;2022-12-07T08:32:49;102230.47;;;12.32;50.60
22481;BME280;11407;56.964;-2.212;2022-12-07T08:35:15;102231.03;;;12.37;50.08
22481;BME280;11407;56.964;-2.212;2022-12-07T08:37:41;102239.22;;;12.32;50.30
22481;BME280;11407;56.964;-2.212;2022-12-07T08:40:08;102239.63;;;12.40;50.66
22481;BME280;11407;56.964;-2.212;2022-12-07T08:42:34;102244.84;;;12.42;51.10
22481;BME280;11407;56.964;-2.212;2022-12-07T08:45:06;102240.09;;;12.47;50.31
22481;BME280;11407;56.964;-2.212;2022-12-07T08:47:34;102228.25;;;12.54;50.22
22481;BME280;11407;56.964;-2.212;2022-12-07T08:50:01;102230.69;;;12.43;50.06
22481;BME280;11407;56.964;-2.212;2022-12-07T08:52:30;102229.31;;;12.36;50.31
22481;BME280;11407;56.964;-2.212;2022-12-07T08:54:56;102214.94;;;12.26;50.38
22481;BME280;11407;56.964;-2.212;2022-12-07T08:57:22;102229.03;;;11.97;50.55
22481;BME280;11407;56.964;-2.212;2022-12-07T08:59:48;102223.75;;;11.97;51.24
22481;BME280;11407;56.964;-2.212;2022-12-07T09:02:13;102219.53;;;12.08;50.81
22481;BME280;11407;56.964;-2.212;2022-12-07T09:04:38;102205.47;;;11.92;50.89
22481;BME280;11407;56.964;-2.212;2022-12-07T09:07:04;102214.59;;;12.02;50.55
22481;BME280;11407;56.964;-2.212;2022-12-07T09:09:30;102206.91;;;11.98;50.39
22481;BME280;11407;56.964;-2.212;2022-12-07T09:11:55;102204.66;;;11.92;50.80
22481;BME280;11407;56.964;-2.212;2022-12-07T09:14:21;102200.03;;;11.95;50.19
22481;BME280;11407;56.964;-2.212;2022-12-07T09:16:46;102204.03;;;12.02;50.43
22481;BME280;11407;56.964;-2.212;2022-12-07T09:19:12;102191.06;;;11.98;50.57
22481;BME280;11407;56.964;-2.212;2022-12-07T09:21:37;102191.59;;;11.89;50.65
22481;BME280;11407;56.964;-2.212;2022-12-07T09:24:03;102199.91;;;11.83;50.27
22481;BME280;11407;56.964;-2.212;2022-12-07T09:26:28;102190.38;;;11.65;51.17
22481;BME280;11407;56.964;-2.212;2022-12-07T09:28:54;102189.28;;;11.69;50.77
22481;BME280;11407;56.964;-2.212;2022-12-07T09:31:19;102190.97;;;11.70;50.62
22481;BME280;11407;56.964;-2.212;2022-12-07T09:33:44;102196.25;;;11.70;50.32
22481;BME280;11407;56.964;-2.212;2022-12-07T09:36:10;102217.31;;;11.56;50.75
22481;BME280;11407;56.964;-2.212;2022-12-07T09:38:35;102206.31;;;11.64;50.80
22481;BME280;11407;56.964;-2.212;2022-12-07T09:41:06;102199.13;;;11.81;50.46
22481;BME280;11407;56.964;-2.212;2022-12-07T09:43:35;102203.75;;;11.77;50.79
22481;BME280;11407;56.964;-2.212;2022-12-07T09:46:01;102206.97;;;11.67;50.54
22481;BME280;11407;56.964;-2.212;2022-12-07T09:48:36;102209.09;;;11.76;49.96
22481;BME280;11407;56.964;-2.212;2022-12-07T09:51:09;102197.34;;;11.66;50.91
22481;BME280;11407;56.964;-2.212;2022-12-07T09:53:39;102185.31;;;11.76;50.51
22481;BME280;11407;56.964;-2.212;2022-12-07T09:56:05;102194.53;;;11.84;50.65
22481;BME280;11407;56.964;-2.212;2022-12-07T09:58:32;102185.13;;;11.94;50.87
22481;BME280;11407;56.964;-2.212;2022-12-07T10:01:05;102191.84;;;12.00;50.05
22481;BME280;11407;56.964;-2.212;2022-12-07T10:03:31;102191.50;;;12.06;49.74
22481;BME280;11407;56.964;-2.212;2022-12-07T10:05:57;102187.03;;;12.06;50.29
22481;BME280;11407;56.964;-2.212;2022-12-07T10:08:22;102197.34;;;12.11;49.90
22481;BME280;11407;56.964;-2.212;2022-12-07T10:10:53;102192.75;;;12.28;50.29
22481;BME280;11407;56.964;-2.212;2022-12-07T10:13:41;102188.06;;;12.33;50.23
22481;BME280;11407;56.964;-2.212;2022-12-07T10:16:39;102174.38;;;12.41;49.95
22481;BME280;11407;56.964;-2.212;2022-12-07T10:24:27;102162.28;;;12.37;50.47
22481;BME280;11407;56.964;-2.212;2022-12-07T10:26:54;102158.22;;;12.31;50.61
22481;BME280;11407;56.964;-2.212;2022-12-07T10:31:53;102162.09;;;12.40;50.02
22481;BME280;11407;56.964;-2.212;2022-12-07T10:36:52;102154.63;;;12.32;50.51
22481;BME280;11407;56.964;-2.212;2022-12-07T10:39:21;102155.28;;;12.36;49.32
22481;BME280;11407;56.964;-2.212;2022-12-07T10:42:00;102139.75;;;12.59;49.65
22481;BME280;11407;56.964;-2.212;2022-12-07T10:44:28;102125.19;;;12.66;49.77
22481;BME280;11407;56.964;-2.212;2022-12-07T11:00:18;102122.72;;;13.05;49.85
22481;BME280;11407;56.964;-2.212;2022-12-07T11:09:04;102119.47;;;13.40;49.28
22481;BME280;11407;56.964;-2.212;2022-12-07T11:11:36;102112.25;;;13.30;49.66
22481;BME280;11407;56.964;-2.212;2022-12-07T11:20:00;102115.75;;;13.30;49.22
22481;BME280;11407;56.964;-2.212;2022-12-07T11:22:49;102102.25;;;13.47;48.07
22481;BME280;11407;56.964;-2.212;2022-12-07T11:25:31;102095.50;;;13.29;48.79
22481;BME280;11407;56.964;-2.212;2022-12-07T11:34:00;102078.63;;;13.44;48.34
22481;BME280;11407;56.964;-2.212;2022-12-07T11:39:00;102064.19;;;13.36;49.17
22481;BME280;11407;56.964;-2.212;2022-12-07T11:41:34;102051.50;;;13.41;49.29
22481;BME280;11407;56.964;-2.212;2022-12-07T11:46:53;102054.66;;;13.46;48.72
22481;BME280;11407;56.964;-2.212;2022-12-07T11:49:30;102047.59;;;13.46;48.60
22481;BME280;11407;56.964;-2.212;2022-12-07T11:51:59;102040.53;;;13.33;49.07
22481;BME280;11407;56.964;-2.212;2022-12-07T11:54:31;102045.00;;;13.32;48.90
22481;BME280;11407;56.964;-2.212;2022-12-07T11:57:02;102032.91;;;13.28;48.54
22481;BME280;11407;56.964;-2.212;2022-12-07T11:59:40;102027.53;;;13.30;48.22
22481;BME280;11407;56.964;-2.212;2022-12-07T12:02:16;102013.63;;;13.26;48.81
22481;BME280;11407;56.964;-2.212;2022-12-07T12:04:55;102016.13;;;13.15;48.33
22481;BME280;11407;56.964;-2.212;2022-12-07T12:07:26;102012.00;;;13.11;48.85
22481;BME280;11407;56.964;-2.212;2022-12-07T12:09:56;102009.59;;;13.21;48.70
22481;BME280;11407;56.964;-2.212;2022-12-07T12:23:50;101998.63;;;13.39;48.78
22481;BME280;11407;56.964;-2.212;2022-12-07T12:25:59;101988.66;;;13.43;47.82
22481;BME280;11407;56.964;-2.212;2022-12-07T12:28:30;101990.25;;;13.33;48.33
22481;BME280;11407;56.964;-2.212;2022-12-07T12:31:16;101987.81;;;13.30;48.35
22481;BME280;11407;56.964;-2.212;2022-12-07T12:33:52;101983.56;;;13.27;49.17
22481;BME280;11407;56.964;-2.212;2022-12-07T12:51:52;101973.56;;;13.06;48.67
22481;BME280;11407;56.964;-2.212;2022-12-07T12:54:31;101968.97;;;12.95;48.58
22481;BME280;11407;56.964;-2.212;2022-12-07T12:57:24;101968.94;;;13.22;47.61
22481;BME280;11407;56.964;-2.212;2022-12-07T13:02:35;101979.38;;;13.11;48.12
22481;BME280;11407;56.964;-2.212;2022-12-07T13:26:22;101960.09;;;13.60;48.12
22481;BME280;11407;56.964;-2.212;2022-12-07T13:29:05;101956.91;;;13.67;48.18
22481;BME280;11407;56.964;-2.212;2022-12-07T13:34:38;101959.56;;;13.92;48.44
22481;BME280;11407;56.964;-2.212;2022-12-07T13:37:14;101950.16;;;13.88;48.67
22481;BME280;11407;56.964;-2.212;2022-12-07T13:39:49;101946.19;;;14.19;48.79
22481;BME280;11407;56.964;-2.212;2022-12-07T13:42:24;101953.25;;;14.31;49.29
22481;BME280;11407;56.964;-2.212;2022-12-07T13:44:51;101948.19;;;14.28;48.88
22481;BME280;11407;56.964;-2.212;2022-12-07T13:47:28;101933.59;;;14.45;48.57
22481;BME280;11407;56.964;-2.212;2022-12-07T13:49:56;101929.25;;;14.44;48.30
22481;BME280;11407;56.964;-2.212;2022-12-07T13:52:25;101926.78;;;14.54;48.82
22481;BME280;11407;56.964;-2.212;2022-12-07T13:57:30;101928.63;;;14.64;48.18
22481;BME280;11407;56.964;-2.212;2022-12-07T13:59:57;101926.72;;;14.66;47.87
22481;BME280;11407;56.964;-2.212;2022-12-07T14:02:27;101923.03;;;14.56;47.65
22481;BME280;11407;56.964;-2.212;2022-12-07T14:05:07;101921.13;;;14.58;46.78
22481;BME280;11407;56.964;-2.212;2022-12-07T14:07:33;101921.16;;;14.23;47.98
22481;BME280;11407;56.964;-2.212;2022-12-07T14:10:22;101920.84;;;14.02;47.36
22481;BME280;11407;56.964;-2.212;2022-12-07T14:12:44;101920.88;;;13.90;47.94
22481;BME280;11407;56.964;-2.212;2022-12-07T14:15:29;101909.31;;;13.91;46.79
22481;BME280;11407;56.964;-2.212;2022-12-07T14:17:56;101919.41;;;13.73;47.67
22481;BME280;11407;56.964;-2.212;2022-12-07T14:20:39;101909.88;;;13.71;47.76
22481;BME280;11407;56.964;-2.212;2022-12-07T14:23:05;101906.28;;;13.47;48.00
22481;BME280;11407;56.964;-2.212;2022-12-07T14:25:51;101900.56;;;13.41;47.34
22481;BME280;11407;56.964;-2.212;2022-12-07T14:28:29;101891.03;;;13.51;47.35
22481;BME280;11407;56.964;-2.212;2022-12-07T14:30:56;101884.56;;;13.42;48.30
22481;BME280;11407;56.964;-2.212;2022-12-07T14:33:22;101889.72;;;13.44;48.56
22481;BME280;11407;56.964;-2.212;2022-12-07T14:35:48;101880.97;;;13.43;48.41
22481;BME280;11407;56.964;-2.212;2022-12-07T14:38:14;101886.06;;;13.46;48.21
22481;BME280;11407;56.964;-2.212;2022-12-07T14:40:40;101882.88;;;13.41;48.27
22481;BME280;11407;56.964;-2.212;2022-12-07T14:43:12;101882.22;;;13.50;48.06
22481;BME280;11407;56.964;-2.212;2022-12-07T14:45:38;101884.75;;;13.39;48.87
22481;BME280;11407;56.964;-2.212;2022-12-07T14:48:05;101878.09;;;13.46;49.00
22481;BME280;11407;56.964;-2.212;2022-12-07T14:50:36;101869.94;;;13.61;48.94
22481;BME280;11407;56.964;-2.212;2022-12-07T14:53:26;101864.09;;;13.69;48.24
22481;BME280;11407;56.964;-2.212;2022-12-07T14:55:52;101873.84;;;13.56;48.24
22481;BME280;11407;56.964;-2.212;2022-12-07T14:58:18;101866.31;;;13.50;48.26
22481;BME280;11407;56.964;-2.212;2022-12-07T15:00:44;101868.97;;;13.50;48.04
22481;BME280;11407;56.964;-2.212;2022-12-07T15:03:10;101867.50;;;13.46;48.61
22481;BME280;11407;56.964;-2.212;2022-12-07T15:05:36;101856.47;;;13.52;48.49
22481;BME280;11407;56.964;-2.212;2022-12-07T15:08:02;101853.31;;;13.47;48.21